Aérodrome :
LOGIN :

S'inscrire | Disclaimer

   EN    FR    IT 

 










Légende :    VFR   VFR Marginal   IFR   IFR Intensif   IFR Très Intensif
Visi : 
Plafond : 
>= 8 km
>= 3000ft
5 à 8 km
1000 à 3000 ft
1500m à 5 km
500 à 1000 ft
800 à 1500m
200 à 500 ft
< 800m
< 200 ft
Symboles :   Orages  Brouillard  Fortes neiges  Fortes précipitations  Vent > 20 kt
SIGMETs :   Divers  Orages  Givrage  Turbulence  Onde Orograph.  Cendres Volcan.






- Altitude de l'aérodrome : 36 ft
- Code IATA : LTQ


LFAT - Le Touquet

DERNIER METAR :
  • 220130Z AUTO 14004KT 0400 R13/0550N FZFG VV/// M02/M02 Q1038

METARs EXPIRÉS :
  • 220100Z AUTO 14003KT 0500 R13/0600N FZFG VV/// M02/M02 Q1039
  • 220030Z AUTO 00000KT 0800 R13/0900U FZFG VV/// M02/M02 Q1039
  • 220000Z AUTO 00000KT 0300 R13/0450N FZFG VV/// M02/M02 Q1039
  • 212330Z AUTO 11004KT 0400 0350 R13/0500N FZFG VV/// M02/M02 Q1039
  • 212300Z AUTO 13004KT 0350 0300 R13/0450N FZFG VV/// M01/M01 Q1039

Prévision TAF périmée.
ATIS : +33 3 21 06 62 84



MET'MAP, la Météo Aéronautique d'un coup d'oeil ! - Copyright ORBIFLY Décembre 2007 - Disclaimer

ORBIFLY MET'MAP TEAM :

Programmation & Développement : Alexandra Zaïnal
Sur une idée originale de : Baudouin d'Aumeries
Assistance à la programmation : Marc-Olivier Méhu
Soutien technique & logistique : Manuel Goepfert

Contact : metmap@orbifly.com




SOURCES & CREDITS :

   NOAA